Las Peladas, Argentina
Current Conditions -  °F | °C
As of 4:00 AM on Thursday 27 Nov 2014 (Local Time) from SCAT Reporting Station
NA  
Wind Chill: 55°   Ceiling: NA
Heat Index: 55°   Visibility: 6mi
Dew Point: 50°   Wind: 9mph
Humidity: 82%   Direction: 180°S
Pressure: 30"   Gusts: NA
Location:  27.04°S, 68.09°W
Report Text: SCAT 270700Z AUTO 18008KT 150V210 9999 // ///011 13/10 Q1016
Loading
Personal Weather Stations






























Interactive Weather Map New forecast layout! Learn more

10-Day Weather Forecast

Advertisements
Track Severe Weather on mobile